Time;durP1;ratioP1;P1;durP2;ratioP2;P2;SDS_P1;SDS_P2;PMS_P1;PMS_P2;Temp;Humidity;BMP_temperature;BMP_pressure;BME280_temperature;BME280_humidity;BME280_pressure;Samples;Min_cycle;Max_cycle;Signal;HPM_P1;HPM_P2
2022/05/31 00:02:16;;;;;;;2.77;2.57;;;;;;;;;;5028311;28;20277;-73
2022/05/31 00:04:44;;;;;;;3.17;2.87;;;;;;;;;;5010525;28;20234;-73
2022/05/31 00:07:11;;;;;;;3.03;2.60;;;;;;;;;;5005708;28;20695;-73
2022/05/31 00:09:37;;;;;;;4.23;3.60;;;;;;;;;;5037976;28;20222;-72
2022/05/31 00:12:08;;;;;;;3.30;3.10;;;;;;;;;;5013922;28;20618;-73
2022/05/31 00:14:35;;;;;;;3.53;3.23;;;;;;;;;;5012933;28;20227;-72
2022/05/31 00:17:01;;;;;;;4.27;3.20;;;;;;;;;;5024810;28;20235;-73
2022/05/31 00:19:29;;;;;;;3.10;2.90;;;;;;;;;;4989442;28;20220;-74
2022/05/31 00:22:06;;;;;;;4.10;2.77;;;;;;;;;;5016826;28;20223;-72
2022/05/31 00:24:31;;;;;;;2.93;2.63;;;;;;;;;;5016869;28;20267;-74
2022/05/31 00:26:57;;;;;;;4.00;3.10;;;;;;;;;;5025682;28;20251;-73
2022/05/31 00:29:22;;;;;;;2.67;2.47;;;;;;;;;;5010469;28;20283;-74
2022/05/31 00:31:51;;;;;;;3.17;2.97;;;;;;;;;;5007807;28;20223;-72
2022/05/31 00:34:17;;;;;;;2.73;2.53;;;;;;;;;;5003397;28;20766;-74
2022/05/31 00:36:49;;;;;;;2.87;2.67;;;;;;;;;;5012843;28;20224;-72
2022/05/31 00:39:16;;;;;;;2.90;2.70;;;;;;;;;;4996834;28;20610;-72
2022/05/31 00:41:42;;;;;;;2.70;2.50;;;;;;;;;;5015524;28;20228;-74
2022/05/31 00:44:15;;;;;;;3.30;2.57;;;;;;;;;;5034452;28;20232;-73
2022/05/31 00:46:47;;;;;;;2.97;2.63;;;;;;;;;;5020370;28;20694;-73
2022/05/31 00:49:24;;;;;;;2.47;2.27;;;;;;;;;;5008471;28;20231;-71
2022/05/31 00:51:58;;;;;;;2.50;2.30;;;;;;;;;;5013174;28;21489;-71
2022/05/31 00:54:28;;;;;;;2.60;2.40;;;;;;;;;;5014191;28;20219;-74
2022/05/31 00:56:56;;;;;;;2.30;2.20;;;;;;;;;;5034056;28;20229;-75
2022/05/31 00:59:31;;;;;;;2.20;2.10;;;;;;;;;;5001898;28;20236;-74
2022/05/31 01:01:59;;;;;;;2.27;2.13;;;;;;;;;;5022114;28;20236;-74
2022/05/31 01:04:38;;;;;;;2.40;2.20;;;;;;;;;;5004586;28;20271;-75
2022/05/31 01:07:08;;;;;;;2.40;2.20;;;;;;;;;;5022307;28;20227;-73
2022/05/31 01:09:34;;;;;;;2.20;2.00;;;;;;;;;;5023016;28;20265;-74
2022/05/31 01:12:20;;;;;;;2.10;2.00;;;;;;;;;;5021554;28;20365;-73
2022/05/31 01:15:14;;;;;;;2.97;2.00;;;;;;;;;;4990839;28;20215;-73
2022/05/31 01:17:58;;;;;;;2.00;1.90;;;;;;;;;;5028791;28;20246;-73
2022/05/31 01:20:26;;;;;;;2.63;2.10;;;;;;;;;;5017190;28;20721;-73
2022/05/31 01:23:18;;;;;;;2.23;2.03;;;;;;;;;;5017537;28;20276;-74
2022/05/31 01:25:58;;;;;;;2.20;2.00;;;;;;;;;;5019817;28;20216;-74
2022/05/31 01:28:30;;;;;;;2.47;2.10;;;;;;;;;;5053066;28;20278;-75
2022/05/31 01:31:23;;;;;;;2.80;2.50;;;;;;;;;;5042101;28;20582;-72
2022/05/31 01:34:12;;;;;;;2.50;2.30;;;;;;;;;;5016739;28;20224;-73
2022/05/31 01:36:53;;;;;;;2.73;2.53;;;;;;;;;;5011409;28;20722;-73
2022/05/31 01:39:31;;;;;;;2.93;2.57;;;;;;;;;;4989334;28;20238;-74
2022/05/31 01:42:09;;;;;;;3.10;2.77;;;;;;;;;;5025396;28;20294;-74
2022/05/31 01:44:40;;;;;;;5.57;3.40;;;;;;;;;;4997921;28;20807;-74
2022/05/31 01:47:05;;;;;;;5.50;3.67;;;;;;;;;;4986896;28;20228;-73
2022/05/31 01:49:34;;;;;;;5.90;3.33;;;;;;;;;;5020163;28;20607;-72
2022/05/31 01:51:59;;;;;;;4.17;3.60;;;;;;;;;;4985387;28;20251;-74
2022/05/31 01:54:27;;;;;;;4.97;4.30;;;;;;;;;;4997173;28;20277;-72
2022/05/31 01:56:55;;;;;;;5.83;4.10;;;;;;;;;;5025641;28;20254;-73
2022/05/31 01:59:21;;;;;;;5.77;4.00;;;;;;;;;;5009894;28;20598;-74
2022/05/31 02:01:46;;;;;;;6.27;4.37;;;;;;;;;;5002584;28;20241;-73
2022/05/31 02:04:15;;;;;;;8.13;4.80;;;;;;;;;;4994463;28;20756;-75
2022/05/31 02:06:41;;;;;;;7.67;4.83;;;;;;;;;;5005914;28;20230;-74
2022/05/31 02:09:11;;;;;;;6.20;4.00;;;;;;;;;;4992525;28;20224;-73
2022/05/31 02:11:41;;;;;;;9.23;4.93;;;;;;;;;;4988539;28;20234;-74
2022/05/31 02:14:19;;;;;;;7.00;4.90;;;;;;;;;;5035738;28;20246;-73
2022/05/31 02:16:47;;;;;;;8.43;5.77;;;;;;;;;;5041655;28;20207;-73
2022/05/31 02:19:32;;;;;;;8.13;5.60;;;;;;;;;;5040665;28;20221;-73
2022/05/31 02:22:06;;;;;;;10.70;7.03;;;;;;;;;;5026881;28;20314;-72
2022/05/31 02:24:35;;;;;;;8.57;5.60;;;;;;;;;;5042148;28;20227;-73
2022/05/31 02:27:01;;;;;;;10.73;6.23;;;;;;;;;;5020852;28;20250;-74
2022/05/31 02:29:31;;;;;;;8.83;5.83;;;;;;;;;;5022092;28;20219;-73
2022/05/31 02:32:00;;;;;;;8.77;6.73;;;;;;;;;;5011352;28;20235;-73
2022/05/31 02:34:28;;;;;;;8.00;6.67;;;;;;;;;;5016054;28;20212;-73
2022/05/31 02:36:54;;;;;;;7.47;6.03;;;;;;;;;;4996880;28;20309;-73
2022/05/31 02:39:20;;;;;;;9.30;6.50;;;;;;;;;;4991440;28;20228;-74
2022/05/31 02:41:47;;;;;;;7.93;5.70;;;;;;;;;;4999179;28;20317;-74
2022/05/31 02:44:13;;;;;;;10.00;5.87;;;;;;;;;;5014747;28;20728;-73
2022/05/31 02:46:46;;;;;;;9.73;6.23;;;;;;;;;;4987310;28;20250;-74
2022/05/31 02:49:14;;;;;;;10.60;7.27;;;;;;;;;;5029906;28;20222;-74
2022/05/31 02:51:42;;;;;;;11.87;8.57;;;;;;;;;;4981955;28;20598;-73
2022/05/31 02:54:10;;;;;;;11.70;7.47;;;;;;;;;;5022207;28;20609;-74
2022/05/31 02:56:56;;;;;;;12.53;8.27;;;;;;;;;;5030212;28;20581;-73
2022/05/31 02:59:53;;;;;;;12.03;7.83;;;;;;;;;;4966951;28;20226;-74
2022/05/31 03:02:39;;;;;;;11.57;8.20;;;;;;;;;;5033267;28;20243;-73
2022/05/31 03:05:28;;;;;;;12.53;7.93;;;;;;;;;;5041584;28;20651;-72
2022/05/31 03:08:06;;;;;;;14.63;9.20;;;;;;;;;;5026420;28;20601;-72
2022/05/31 03:10:44;;;;;;;11.80;8.60;;;;;;;;;;5022434;28;20770;-74
2022/05/31 03:13:15;;;;;;;14.93;9.23;;;;;;;;;;5001073;28;20237;-72
2022/05/31 03:15:40;;;;;;;14.13;9.60;;;;;;;;;;5008541;28;20595;-73
2022/05/31 03:18:08;;;;;;;13.87;9.70;;;;;;;;;;5000225;28;20320;-73
2022/05/31 03:20:40;;;;;;;18.97;10.33;;;;;;;;;;4994539;28;20231;-72
2022/05/31 03:23:14;;;;;;;12.93;9.77;;;;;;;;;;5038045;28;20250;-73
2022/05/31 03:25:39;;;;;;;14.37;9.73;;;;;;;;;;4994404;28;20247;-73
2022/05/31 03:28:05;;;;;;;16.10;10.17;;;;;;;;;;5030251;28;20228;-74
2022/05/31 03:30:36;;;;;;;16.60;10.63;;;;;;;;;;5023350;28;20217;-74
2022/05/31 03:33:37;;;;;;;17.00;11.00;;;;;;;;;;4992911;28;20223;-75
2022/05/31 03:36:02;;;;;;;18.77;11.07;;;;;;;;;;5035216;28;20273;-73
2022/05/31 03:38:39;;;;;;;17.10;11.27;;;;;;;;;;5032214;28;20298;-72
2022/05/31 03:41:07;;;;;;;16.93;11.17;;;;;;;;;;5005481;28;20311;-74
2022/05/31 03:43:47;;;;;;;17.20;9.70;;;;;;;;;;4999296;28;20227;-74
2022/05/31 03:46:24;;;;;;;12.73;9.30;;;;;;;;;;5014160;28;20228;-74
2022/05/31 03:49:17;;;;;;;14.83;9.23;;;;;;;;;;5026391;28;20223;-73
2022/05/31 03:51:47;;;;;;;11.23;7.50;;;;;;;;;;5030556;28;20249;-73
2022/05/31 03:54:20;;;;;;;13.47;8.47;;;;;;;;;;5022812;28;20224;-73
2022/05/31 03:57:14;;;;;;;13.57;9.33;;;;;;;;;;5005234;28;20720;-73
2022/05/31 03:59:42;;;;;;;12.17;8.30;;;;;;;;;;5002819;28;20298;-73
2022/05/31 04:02:11;;;;;;;12.17;8.13;;;;;;;;;;5041360;28;20223;-72
2022/05/31 04:04:38;;;;;;;13.17;8.10;;;;;;;;;;5033602;28;20319;-72
2022/05/31 04:07:03;;;;;;;11.63;7.47;;;;;;;;;;5034805;28;20227;-74
2022/05/31 04:09:30;;;;;;;9.10;7.07;;;;;;;;;;4992176;28;20269;-74
2022/05/31 04:11:57;;;;;;;7.00;5.97;;;;;;;;;;5024489;28;20223;-74
2022/05/31 04:14:41;;;;;;;7.63;6.00;;;;;;;;;;5023494;28;20719;-73
2022/05/31 04:17:07;;;;;;;7.67;5.53;;;;;;;;;;5018588;28;20229;-72
2022/05/31 04:19:33;;;;;;;8.50;5.57;;;;;;;;;;5035868;28;20227;-73
2022/05/31 04:22:02;;;;;;;6.77;5.27;;;;;;;;;;5038186;28;20771;-73
2022/05/31 04:24:28;;;;;;;8.73;6.23;;;;;;;;;;5036876;28;20302;-74
2022/05/31 04:27:16;;;;;;;6.33;5.60;;;;;;;;;;5030373;28;20740;-74
2022/05/31 04:30:11;;;;;;;7.27;5.20;;;;;;;;;;4968256;28;20752;-73
2022/05/31 04:33:11;;;;;;;5.07;4.30;;;;;;;;;;4965610;28;20227;-74
2022/05/31 04:35:36;;;;;;;5.30;4.23;;;;;;;;;;5028232;28;20864;-74
2022/05/31 04:38:02;;;;;;;5.40;4.90;;;;;;;;;;5017241;28;20303;-72
2022/05/31 04:40:51;;;;;;;6.60;4.90;;;;;;;;;;5024206;28;20312;-73
2022/05/31 04:43:45;;;;;;;5.83;4.73;;;;;;;;;;5007885;28;20225;-74
2022/05/31 04:46:20;;;;;;;6.60;4.87;;;;;;;;;;5042249;28;20250;-73
2022/05/31 04:48:55;;;;;;;6.23;4.83;;;;;;;;;;5001637;28;20223;-74
2022/05/31 04:51:23;;;;;;;6.47;4.93;;;;;;;;;;5008995;28;20224;-73
2022/05/31 04:53:56;;;;;;;4.77;4.33;;;;;;;;;;4991079;28;20209;-73
2022/05/31 04:56:36;;;;;;;5.97;4.60;;;;;;;;;;5025770;28;20643;-72
2022/05/31 04:59:09;;;;;;;4.43;4.03;;;;;;;;;;5027177;28;20726;-72
2022/05/31 05:01:35;;;;;;;5.73;4.13;;;;;;;;;;5001358;28;20239;-73
2022/05/31 05:04:05;;;;;;;5.00;3.57;;;;;;;;;;4995852;28;20239;-72
2022/05/31 05:06:38;;;;;;;3.93;3.53;;;;;;;;;;5011470;28;20232;-72
2022/05/31 05:09:08;;;;;;;5.00;3.83;;;;;;;;;;5017055;28;20290;-73
2022/05/31 05:11:37;;;;;;;4.10;3.30;;;;;;;;;;5004102;28;20224;-75
2022/05/31 05:14:30;;;;;;;3.53;3.20;;;;;;;;;;5013855;28;20576;-73
2022/05/31 05:16:59;;;;;;;3.80;3.50;;;;;;;;;;5006321;28;20223;-73
2022/05/31 05:19:32;;;;;;;4.07;3.33;;;;;;;;;;5035249;28;20690;-72
2022/05/31 05:22:00;;;;;;;4.33;3.40;;;;;;;;;;5023332;28;20678;-72
2022/05/31 05:24:28;;;;;;;3.97;3.53;;;;;;;;;;5017064;28;20318;-73
2022/05/31 05:27:12;;;;;;;5.67;3.90;;;;;;;;;;5034338;28;20754;-72
2022/05/31 05:32:49;;;;;;;3.83;3.53;;;;;;;;;;5033849;28;20224;-74
2022/05/31 05:35:25;;;;;;;3.90;3.60;;;;;;;;;;5029276;28;20216;-74
2022/05/31 05:38:01;;;;;;;3.77;3.47;;;;;;;;;;5016661;28;20221;-72
2022/05/31 05:40:34;;;;;;;5.13;3.67;;;;;;;;;;5029124;28;20223;-72
2022/05/31 05:43:07;;;;;;;4.10;3.70;;;;;;;;;;5001908;28;20281;-74
2022/05/31 05:46:01;;;;;;;5.73;4.17;;;;;;;;;;5030405;28;20231;-73
2022/05/31 05:48:30;;;;;;;4.03;3.63;;;;;;;;;;5013334;28;20577;-74
2022/05/31 05:50:58;;;;;;;3.50;3.17;;;;;;;;;;5024991;28;20331;-72
2022/05/31 05:53:45;;;;;;;3.93;3.43;;;;;;;;;;5036299;28;20282;-73
2022/05/31 05:56:31;;;;;;;3.50;3.17;;;;;;;;;;5032808;28;20310;-73
2022/05/31 05:59:17;;;;;;;4.63;3.50;;;;;;;;;;5021402;28;20223;-73
2022/05/31 06:02:28;;;;;;;3.87;3.20;;;;;;;;;;5023840;28;20762;-72
2022/05/31 06:05:18;;;;;;;3.80;3.40;;;;;;;;;;5018126;28;20241;-72
2022/05/31 06:08:03;;;;;;;3.57;3.27;;;;;;;;;;5019798;28;20231;-73
2022/05/31 06:10:36;;;;;;;4.47;3.30;;;;;;;;;;5021726;28;20298;-72
2022/05/31 06:13:09;;;;;;;3.70;3.30;;;;;;;;;;5011986;28;20226;-74
2022/05/31 06:15:39;;;;;;;4.00;3.70;;;;;;;;;;5000787;28;20696;-72
2022/05/31 06:18:08;;;;;;;4.67;3.43;;;;;;;;;;5024545;28;20216;-74
2022/05/31 06:20:34;;;;;;;4.97;3.70;;;;;;;;;;5007760;28;20259;-73
2022/05/31 06:23:00;;;;;;;4.20;3.23;;;;;;;;;;5007666;28;20223;-72
2022/05/31 06:25:26;;;;;;;4.60;3.33;;;;;;;;;;5003183;28;20732;-73
2022/05/31 06:28:00;;;;;;;3.73;3.40;;;;;;;;;;5013597;28;20212;-73
2022/05/31 06:30:28;;;;;;;4.07;3.30;;;;;;;;;;5036542;28;20298;-73
2022/05/31 06:32:56;;;;;;;3.73;3.33;;;;;;;;;;4994097;28;20266;-72
2022/05/31 06:35:21;;;;;;;3.00;2.70;;;;;;;;;;4997354;28;20256;-74
2022/05/31 06:37:58;;;;;;;3.37;2.97;;;;;;;;;;5000460;28;20237;-73
2022/05/31 06:40:28;;;;;;;4.37;3.13;;;;;;;;;;5035693;28;20224;-73
2022/05/31 06:42:58;;;;;;;5.87;2.93;;;;;;;;;;5004319;28;20732;-74
2022/05/31 06:46:05;;;;;;;2.93;2.67;;;;;;;;;;4980161;28;20225;-72
2022/05/31 06:48:31;;;;;;;3.57;2.93;;;;;;;;;;5020011;28;20224;-72
2022/05/31 06:51:13;;;;;;;5.07;2.93;;;;;;;;;;5022057;28;20215;-72
2022/05/31 06:57:34;;;;;;;4.07;2.50;;;;;;;;;;4998671;28;20823;-75
2022/05/31 07:00:15;;;;;;;3.10;2.30;;;;;;;;;;4985292;28;20634;-73
2022/05/31 07:02:40;;;;;;;3.33;2.57;;;;;;;;;;5000320;28;20221;-73
2022/05/31 07:05:10;;;;;;;3.47;2.30;;;;;;;;;;5058909;28;20216;-72
2022/05/31 07:07:39;;;;;;;5.20;2.67;;;;;;;;;;5020666;28;20231;-72
2022/05/31 07:10:25;;;;;;;3.20;2.20;;;;;;;;;;5043357;28;20905;-74
2022/05/31 07:13:22;;;;;;;3.33;2.00;;;;;;;;;;5033827;28;20235;-73
2022/05/31 07:16:08;;;;;;;2.90;2.40;;;;;;;;;;5030097;28;20715;-72
2022/05/31 07:18:46;;;;;;;4.63;2.20;;;;;;;;;;5019128;28;20223;-73
2022/05/31 07:21:12;;;;;;;2.47;2.07;;;;;;;;;;5018867;28;20231;-73
2022/05/31 07:23:38;;;;;;;3.97;2.20;;;;;;;;;;5022236;28;20313;-74
2022/05/31 07:26:07;;;;;;;2.20;2.10;;;;;;;;;;4988838;28;20315;-74
2022/05/31 07:28:36;;;;;;;3.10;2.20;;;;;;;;;;5012837;28;20227;-72
2022/05/31 07:31:04;;;;;;;2.40;1.80;;;;;;;;;;5019256;28;20232;-73
2022/05/31 07:33:35;;;;;;;2.33;1.92;;;;;;;;;;5000110;28;20710;-73
2022/05/31 07:36:08;;;;;;;2.10;1.83;;;;;;;;;;5031738;28;20220;-74
2022/05/31 07:38:45;;;;;;;2.10;1.83;;;;;;;;;;5024097;28;20227;-73
2022/05/31 07:41:11;;;;;;;2.17;1.90;;;;;;;;;;5003974;28;20225;-74
2022/05/31 07:43:39;;;;;;;1.93;1.77;;;;;;;;;;5016926;28;20229;-74
2022/05/31 07:46:15;;;;;;;2.75;1.92;;;;;;;;;;4999443;28;20231;-73
2022/05/31 07:48:41;;;;;;;2.60;1.57;;;;;;;;;;5022582;28;20226;-74
2022/05/31 07:51:29;;;;;;;1.88;1.55;;;;;;;;;;5037350;28;20621;-72
2022/05/31 07:54:13;;;;;;;1.97;1.67;;;;;;;;;;5034067;28;20223;-75
2022/05/31 08:00:17;;;;;;;3.88;1.90;;;;;;;;;;5024060;28;20218;-74
2022/05/31 08:02:48;;;;;;;3.07;1.83;;;;;;;;;;5038094;28;20672;-73
2022/05/31 08:05:18;;;;;;;2.90;1.73;;;;;;;;;;5026777;28;20235;-73
2022/05/31 08:07:44;;;;;;;1.95;1.80;;;;;;;;;;5021590;28;20760;-73
2022/05/31 08:10:10;;;;;;;2.83;2.10;;;;;;;;;;5032227;28;20244;-73
2022/05/31 08:12:37;;;;;;;2.58;1.85;;;;;;;;;;5037437;28;20607;-74
2022/05/31 08:15:04;;;;;;;2.43;1.70;;;;;;;;;;5020538;28;20216;-73
2022/05/31 08:17:29;;;;;;;3.30;1.83;;;;;;;;;;5024360;28;20224;-73
2022/05/31 08:19:56;;;;;;;2.00;1.80;;;;;;;;;;5047057;28;20264;-73
2022/05/31 08:22:28;;;;;;;2.25;1.70;;;;;;;;;;5033388;28;20216;-72
2022/05/31 08:24:54;;;;;;;2.47;1.55;;;;;;;;;;5023699;28;20666;-72
2022/05/31 08:27:19;;;;;;;1.97;1.67;;;;;;;;;;5033251;28;20316;-73
2022/05/31 08:29:47;;;;;;;2.20;1.97;;;;;;;;;;5017287;28;20940;-73
2022/05/31 08:32:12;;;;;;;4.45;2.15;;;;;;;;;;4980547;28;20405;-72
2022/05/31 08:34:43;;;;;;;1.90;1.70;;;;;;;;;;5036107;28;20324;-74
2022/05/31 08:37:10;;;;;;;2.65;1.73;;;;;;;;;;5033662;28;20212;-73
2022/05/31 08:39:36;;;;;;;2.40;1.70;;;;;;;;;;5032512;28;20300;-72
2022/05/31 08:42:06;;;;;;;2.57;1.30;;;;;;;;;;5031787;28;20710;-72
2022/05/31 08:44:50;;;;;;;1.60;1.30;;;;;;;;;;5023309;28;20261;-73
2022/05/31 08:47:22;;;;;;;2.63;1.23;;;;;;;;;;5041289;28;20219;-73
2022/05/31 08:53:22;;;;;;;2.30;1.30;;;;;;;;;;5050101;28;20220;-73
2022/05/31 08:58:45;;;;;;;2.05;1.42;;;;;;;;;;4955754;28;20233;-73
2022/05/31 09:01:11;;;;;;;2.17;1.30;;;;;;;;;;5016020;28;20227;-73
2022/05/31 09:03:47;;;;;;;3.50;1.17;;;;;;;;;;5021298;28;20239;-73
2022/05/31 09:06:16;;;;;;;1.70;1.17;;;;;;;;;;5007867;28;20295;-73
2022/05/31 09:08:42;;;;;;;2.08;1.20;;;;;;;;;;4988762;28;20247;-73
2022/05/31 09:11:18;;;;;;;2.42;1.40;;;;;;;;;;5037099;28;20307;-74
2022/05/31 09:13:58;;;;;;;1.30;1.13;;;;;;;;;;5008032;28;20234;-73
2022/05/31 09:16:47;;;;;;;1.60;1.40;;;;;;;;;;5012824;28;20300;-73
2022/05/31 09:19:16;;;;;;;2.42;1.40;;;;;;;;;;5032237;28;20217;-74
2022/05/31 09:21:50;;;;;;;1.30;1.20;;;;;;;;;;4982329;28;20239;-73
2022/05/31 09:24:17;;;;;;;2.05;1.45;;;;;;;;;;4968468;28;20228;-73
2022/05/31 09:26:59;;;;;;;2.45;1.30;;;;;;;;;;5009839;28;20224;-74
2022/05/31 09:29:42;;;;;;;2.42;1.25;;;;;;;;;;5027343;28;20224;-73
2022/05/31 09:32:23;;;;;;;2.45;1.20;;;;;;;;;;4982396;28;20218;-73
2022/05/31 09:35:00;;;;;;;1.92;1.10;;;;;;;;;;4993936;28;20226;-75
2022/05/31 09:37:47;;;;;;;2.35;1.05;;;;;;;;;;5028550;28;20398;-72
2022/05/31 09:40:44;;;;;;;2.47;1.23;;;;;;;;;;5029559;28;20705;-74
2022/05/31 09:43:40;;;;;;;2.85;1.20;;;;;;;;;;5037264;28;20221;-74
2022/05/31 09:46:06;;;;;;;1.05;0.93;;;;;;;;;;5033963;28;20228;-72
2022/05/31 09:48:50;;;;;;;1.90;1.10;;;;;;;;;;5015234;28;20279;-73
2022/05/31 09:51:22;;;;;;;1.67;1.10;;;;;;;;;;4996521;28;20269;-74
2022/05/31 09:57:13;;;;;;;3.45;1.10;;;;;;;;;;5016715;28;20250;-73
2022/05/31 10:00:19;;;;;;;1.52;1.10;;;;;;;;;;5036925;28;20255;-73
2022/05/31 10:03:11;;;;;;;0.95;0.90;;;;;;;;;;5021591;28;20274;-73
2022/05/31 10:05:38;;;;;;;1.92;1.27;;;;;;;;;;5016472;28;20337;-73
2022/05/31 10:08:16;;;;;;;1.33;1.20;;;;;;;;;;5027569;28;20231;-73
2022/05/31 10:10:47;;;;;;;2.17;1.05;;;;;;;;;;5010334;28;20242;-73
2022/05/31 10:13:15;;;;;;;2.70;0.90;;;;;;;;;;4984195;28;20310;-73
2022/05/31 10:15:41;;;;;;;1.23;0.93;;;;;;;;;;5016510;28;20812;-73
2022/05/31 10:18:09;;;;;;;3.17;0.90;;;;;;;;;;5035263;28;20224;-72
2022/05/31 10:20:37;;;;;;;1.13;1.00;;;;;;;;;;5004990;28;20235;-73
2022/05/31 10:23:13;;;;;;;1.50;1.10;;;;;;;;;;5039664;28;20645;-72
2022/05/31 10:26:00;;;;;;;1.48;1.08;;;;;;;;;;5016534;28;20238;-73
2022/05/31 10:29:18;;;;;;;1.17;1.05;;;;;;;;;;4983917;28;20358;-73
2022/05/31 10:32:25;;;;;;;3.10;0.98;;;;;;;;;;5025581;28;20239;-75
2022/05/31 10:35:07;;;;;;;1.15;1.00;;;;;;;;;;5022274;28;20229;-75
2022/05/31 10:37:35;;;;;;;2.35;1.20;;;;;;;;;;5018102;28;20215;-74
2022/05/31 10:40:04;;;;;;;1.30;0.90;;;;;;;;;;5000902;28;20221;-72
2022/05/31 10:42:29;;;;;;;1.75;0.70;;;;;;;;;;5031140;28;20248;-72
2022/05/31 10:44:56;;;;;;;1.70;0.90;;;;;;;;;;4987231;28;20732;-73
2022/05/31 10:47:26;;;;;;;2.30;0.80;;;;;;;;;;5035650;28;20635;-74
2022/05/31 10:49:53;;;;;;;2.75;1.02;;;;;;;;;;5006426;28;20231;-73
2022/05/31 10:52:35;;;;;;;2.88;0.98;;;;;;;;;;5009809;28;20663;-74
2022/05/31 10:55:39;;;;;;;2.08;0.80;;;;;;;;;;5057543;28;20230;-73
2022/05/31 10:58:20;;;;;;;0.80;0.80;;;;;;;;;;5000840;28;20216;-74
2022/05/31 11:01:27;;;;;;;3.95;0.98;;;;;;;;;;5040709;28;20231;-73
2022/05/31 11:04:10;;;;;;;0.80;0.70;;;;;;;;;;4949083;28;20229;-73
2022/05/31 11:06:47;;;;;;;0.73;0.60;;;;;;;;;;5027933;28;20232;-74
2022/05/31 11:12:48;;;;;;;1.17;0.70;;;;;;;;;;5039374;28;20223;-73
2022/05/31 11:15:13;;;;;;;1.15;0.60;;;;;;;;;;5021059;28;20590;-73
2022/05/31 11:18:17;;;;;;;0.50;0.50;;;;;;;;;;5049963;28;20224;-74
2022/05/31 11:20:58;;;;;;;0.98;0.65;;;;;;;;;;5010684;28;20235;-73
2022/05/31 11:23:31;;;;;;;1.38;0.52;;;;;;;;;;5024648;28;20223;-74
2022/05/31 11:25:59;;;;;;;0.50;0.50;;;;;;;;;;4997682;28;20243;-73
2022/05/31 11:28:27;;;;;;;1.17;0.60;;;;;;;;;;5014943;28;20220;-73
2022/05/31 11:31:26;;;;;;;3.30;0.60;;;;;;;;;;5024198;28;20220;-74
2022/05/31 11:34:13;;;;;;;1.20;0.70;;;;;;;;;;5034896;28;20290;-73
2022/05/31 11:36:56;;;;;;;1.42;0.85;;;;;;;;;;5043593;28;20715;-73
2022/05/31 11:40:01;;;;;;;1.17;0.70;;;;;;;;;;5031290;28;20220;-72
2022/05/31 11:42:34;;;;;;;1.08;0.57;;;;;;;;;;4986939;28;20227;-73
2022/05/31 11:45:03;;;;;;;1.63;0.60;;;;;;;;;;5023569;28;20362;-73
2022/05/31 11:47:40;;;;;;;2.00;0.60;;;;;;;;;;5038585;28;20236;-73
2022/05/31 11:50:24;;;;;;;0.88;0.50;;;;;;;;;;5053312;28;20232;-73
2022/05/31 11:53:08;;;;;;;2.15;0.60;;;;;;;;;;5047214;28;20225;-73
2022/05/31 11:55:40;;;;;;;1.80;0.70;;;;;;;;;;5049213;28;20223;-73
2022/05/31 11:58:26;;;;;;;1.27;0.57;;;;;;;;;;5041269;28;20315;-73
2022/05/31 12:01:11;;;;;;;0.82;0.63;;;;;;;;;;5018196;28;20235;-73
2022/05/31 12:03:47;;;;;;;2.47;0.60;;;;;;;;;;5036420;28;20239;-73
2022/05/31 12:06:37;;;;;;;1.02;0.52;;;;;;;;;;5029461;28;20234;-73
2022/05/31 12:09:14;;;;;;;1.10;0.82;;;;;;;;;;5038519;28;20264;-72
2022/05/31 12:11:46;;;;;;;1.45;0.60;;;;;;;;;;5038456;28;20720;-74
2022/05/31 12:14:11;;;;;;;2.30;0.63;;;;;;;;;;5029767;28;20287;-73
2022/05/31 12:16:37;;;;;;;0.45;0.45;;;;;;;;;;5000426;28;20237;-73
2022/05/31 12:19:21;;;;;;;0.47;0.40;;;;;;;;;;5031918;28;20270;-74
2022/05/31 12:21:56;;;;;;;0.93;0.40;;;;;;;;;;5033092;28;20226;-73
2022/05/31 12:24:29;;;;;;;0.50;0.50;;;;;;;;;;5016397;28;20238;-72
2022/05/31 12:27:01;;;;;;;1.85;0.50;;;;;;;;;;5039276;28;20270;-73
2022/05/31 12:29:53;;;;;;;0.95;0.50;;;;;;;;;;4994982;28;20225;-73
2022/05/31 12:32:39;;;;;;;0.73;0.68;;;;;;;;;;5020266;28;20227;-73
2022/05/31 12:35:07;;;;;;;2.53;0.50;;;;;;;;;;5026002;28;20227;-72
2022/05/31 12:37:54;;;;;;;1.13;0.50;;;;;;;;;;5001159;28;20267;-72
2022/05/31 12:40:22;;;;;;;1.02;0.70;;;;;;;;;;5032781;28;20211;-72
2022/05/31 12:42:50;;;;;;;3.85;0.70;;;;;;;;;;5010451;28;20215;-73
2022/05/31 12:45:21;;;;;;;1.17;0.80;;;;;;;;;;5036931;28;20548;-74
2022/05/31 12:47:57;;;;;;;0.93;0.50;;;;;;;;;;4980115;28;20819;-74
2022/05/31 12:51:04;;;;;;;1.50;0.70;;;;;;;;;;5019662;28;20234;-74
2022/05/31 12:53:36;;;;;;;1.90;0.63;;;;;;;;;;5034956;28;20678;-72
2022/05/31 12:56:01;;;;;;;0.60;0.60;;;;;;;;;;5034617;28;20245;-73
2022/05/31 13:00:58;;;;;;;0.50;0.50;;;;;;;;;;5037398;28;20610;-74
2022/05/31 13:03:32;;;;;;;1.13;0.70;;;;;;;;;;5030894;28;20229;-73
2022/05/31 13:06:13;;;;;;;1.55;0.65;;;;;;;;;;5027065;28;20254;-73
2022/05/31 13:08:48;;;;;;;0.55;0.52;;;;;;;;;;5015717;28;20216;-73
2022/05/31 13:19:41;;;;;;;0.88;0.70;;;;;;;;;;5019824;28;20227;-73
2022/05/31 13:22:12;;;;;;;0.80;0.70;;;;;;;;;;5004208;28;20233;-73
2022/05/31 13:24:58;;;;;;;2.58;1.17;;;;;;;;;;5010738;28;20228;-76
2022/05/31 13:27:27;;;;;;;2.28;0.77;;;;;;;;;;5003066;28;20220;-74
2022/05/31 13:30:13;;;;;;;1.65;0.60;;;;;;;;;;4999916;28;20256;-73
2022/05/31 13:32:39;;;;;;;1.88;0.80;;;;;;;;;;5028886;28;20228;-74
2022/05/31 13:35:09;;;;;;;0.98;0.80;;;;;;;;;;5003954;28;20224;-75
2022/05/31 13:37:52;;;;;;;0.95;0.60;;;;;;;;;;5027300;28;20723;-73
2022/05/31 13:40:25;;;;;;;0.75;0.63;;;;;;;;;;5024218;28;20250;-74
2022/05/31 13:42:56;;;;;;;0.98;0.50;;;;;;;;;;5011962;28;20214;-75
2022/05/31 13:45:24;;;;;;;1.10;0.68;;;;;;;;;;5016615;28;20250;-73
2022/05/31 13:48:02;;;;;;;2.33;0.70;;;;;;;;;;5016790;28;20226;-72
2022/05/31 13:50:41;;;;;;;1.40;0.70;;;;;;;;;;5017881;28;20215;-72
2022/05/31 13:53:09;;;;;;;1.45;0.70;;;;;;;;;;5008032;28;20761;-72
2022/05/31 13:55:37;;;;;;;1.50;0.68;;;;;;;;;;5019974;28;20694;-73
2022/05/31 13:58:02;;;;;;;1.95;0.70;;;;;;;;;;4997696;28;20224;-74
2022/05/31 14:00:35;;;;;;;0.98;0.60;;;;;;;;;;5041212;28;20281;-74
2022/05/31 14:03:08;;;;;;;1.25;0.80;;;;;;;;;;5022963;28;20232;-73
2022/05/31 14:05:38;;;;;;;1.67;0.60;;;;;;;;;;5017026;28;20239;-75
2022/05/31 14:08:06;;;;;;;1.55;0.60;;;;;;;;;;5009583;28;20243;-73
2022/05/31 14:10:49;;;;;;;1.15;0.50;;;;;;;;;;5037206;28;20243;-74
2022/05/31 14:13:22;;;;;;;0.75;0.70;;;;;;;;;;5038552;28;20237;-73
2022/05/31 14:15:47;;;;;;;0.75;0.60;;;;;;;;;;5002139;28;20221;-73
2022/05/31 14:18:14;;;;;;;0.90;0.80;;;;;;;;;;5007918;28;20764;-72
2022/05/31 14:20:46;;;;;;;1.10;0.50;;;;;;;;;;5013430;28;20236;-73
2022/05/31 14:23:22;;;;;;;2.08;0.70;;;;;;;;;;5026689;28;20361;-73
2022/05/31 14:25:51;;;;;;;3.50;0.60;;;;;;;;;;5032504;28;20235;-72
2022/05/31 14:28:21;;;;;;;0.75;0.60;;;;;;;;;;4983834;28;20224;-74
2022/05/31 14:30:53;;;;;;;1.50;0.80;;;;;;;;;;5032003;28;20227;-72
2022/05/31 14:33:20;;;;;;;2.22;0.80;;;;;;;;;;4996037;28;20251;-74
2022/05/31 14:35:49;;;;;;;2.50;0.80;;;;;;;;;;5029049;28;20223;-74
2022/05/31 14:38:21;;;;;;;0.98;0.80;;;;;;;;;;5016061;28;20232;-73
2022/05/31 14:40:59;;;;;;;1.63;0.80;;;;;;;;;;5031301;28;20229;-72
2022/05/31 14:43:31;;;;;;;0.85;0.85;;;;;;;;;;5022106;28;20297;-73
2022/05/31 14:45:57;;;;;;;3.08;0.85;;;;;;;;;;5023004;28;20243;-72
2022/05/31 14:48:40;;;;;;;1.92;0.80;;;;;;;;;;5004064;28;20600;-72
2022/05/31 14:51:14;;;;;;;1.10;0.65;;;;;;;;;;5044826;28;20235;-73
2022/05/31 14:53:47;;;;;;;1.38;0.60;;;;;;;;;;5013807;28;20235;-73
2022/05/31 14:56:21;;;;;;;2.50;0.80;;;;;;;;;;5052510;28;20235;-73
2022/05/31 14:58:49;;;;;;;6.57;0.95;;;;;;;;;;5035367;28;20367;-75
2022/05/31 15:01:15;;;;;;;1.35;0.82;;;;;;;;;;5000264;28;20292;-74
2022/05/31 15:03:47;;;;;;;1.88;0.60;;;;;;;;;;5033625;28;20228;-73
2022/05/31 15:06:48;;;;;;;1.58;0.80;;;;;;;;;;5021743;28;20224;-73
2022/05/31 15:09:14;;;;;;;1.83;0.77;;;;;;;;;;5001875;28;20239;-74
2022/05/31 15:20:01;;;;;;;0.77;0.55;;;;;;;;;;5032456;28;20225;-73
2022/05/31 15:22:27;;;;;;;1.05;0.60;;;;;;;;;;5031526;28;20310;-72
2022/05/31 15:24:54;;;;;;;1.65;0.65;;;;;;;;;;5005810;28;20228;-74
2022/05/31 15:27:29;;;;;;;1.70;0.80;;;;;;;;;;4981152;28;20586;-72
2022/05/31 15:29:54;;;;;;;0.80;0.70;;;;;;;;;;5025710;28;20293;-73
2022/05/31 15:32:22;;;;;;;1.00;0.77;;;;;;;;;;5030486;28;20362;-72
2022/05/31 15:34:50;;;;;;;0.68;0.68;;;;;;;;;;5036679;28;20254;-72
2022/05/31 15:37:17;;;;;;;1.33;0.70;;;;;;;;;;5016384;28;20303;-73
2022/05/31 15:39:43;;;;;;;1.35;0.80;;;;;;;;;;5000512;28;20247;-73
2022/05/31 15:42:10;;;;;;;1.80;0.80;;;;;;;;;;5004477;28;20224;-73
2022/05/31 15:44:36;;;;;;;2.58;0.90;;;;;;;;;;5012965;28;20231;-74
2022/05/31 15:47:02;;;;;;;0.82;0.70;;;;;;;;;;5031777;28;20602;-73
2022/05/31 15:49:28;;;;;;;2.33;0.98;;;;;;;;;;5034136;28;20233;-72
2022/05/31 15:51:53;;;;;;;2.45;0.88;;;;;;;;;;5036958;28;20229;-73
2022/05/31 15:54:24;;;;;;;3.72;1.48;;;;;;;;;;5019349;28;20212;-72
2022/05/31 15:56:50;;;;;;;1.42;1.02;;;;;;;;;;5018492;28;20219;-74
2022/05/31 15:59:29;;;;;;;2.00;1.00;;;;;;;;;;4992321;28;20262;-72
2022/05/31 16:01:56;;;;;;;1.45;1.15;;;;;;;;;;5018224;28;20236;-73
2022/05/31 16:04:22;;;;;;;1.50;1.00;;;;;;;;;;5036500;28;25101;-73
2022/05/31 16:06:49;;;;;;;1.85;1.00;;;;;;;;;;5036672;28;20386;-73